Latest Weather Observations for Flinders Reef

IDQ60801

Issued at 7:02 am EST Wednesday 10 February 2016 (issued every 30 minutes, with the page automatically refreshed every 10 minutes)

About weather observations | Map of weather stations | Latest weather observations for QLD | Other Formats
Station Details ID: 200783 Name: FLINDERS REEF Lat: -17.72 Lon: 148.45 Height: 2.6 m
Data from the previous 72 hours. | See also: Recent months at Flinders Reef
Date/Time
EST
Temp
°C
App
Temp
°C
Dew
Point
Rel
Hum
%
Delta-T
°C
Wind Press
QNH
hPa
Press
MSL
hPa
Rain
since 9 am
mm
Dir
 
Spd
km/h
Gust
km/h
Spd
kts
Gust
kts
10/07:00am 28.2 - - - - SSE 43 50 23 27 1006.8 - -
10/06:30am 28.1 - - - - SE 44 50 24 27 1006.2 - -
10/06:24am 28.2 - - - - SE 43 - 23 - - 1006.0 -
10/06:00am 28.4 - - - - SE 41 46 22 25 1005.9 - -
10/05:30am 28.4 - - - - SE 41 46 22 25 1005.7 - -
10/05:24am 28.4 - - - - SSE 41 - 22 - - 1005.4 -
10/05:00am 28.4 - - - - SSE 41 46 22 25 1005.5 - -
10/04:30am 28.5 - - - - SSE 39 43 21 23 1005.3 - -
10/04:24am 28.5 - - - - SE 39 - 21 - - 1005.3 -
10/04:00am 28.6 - - - - SE 39 44 21 24 1005.3 - -
10/03:30am 28.4 - - - - SE 39 44 21 24 1005.3 - -
10/03:24am 28.5 - - - - SE 39 - 21 - - 1005.2 -
10/03:00am 28.6 - - - - SE 41 48 22 26 1005.3 - -
10/02:30am 28.7 - - - - SE 41 48 22 26 1005.4 - -
10/02:24am 28.6 - - - - SE 43 - 23 - - 1005.4 -
10/02:00am 28.7 - - - - SSE 41 46 22 25 1005.7 - -
10/01:30am 28.6 - - - - SE 43 54 23 29 1006.0 - -
10/01:24am 28.6 - - - - SSE 44 - 24 - - 1005.8 -
10/01:00am 28.5 - - - - SE 44 52 24 28 1006.0 - -
10/12:30am 28.5 - - - - SE 44 52 24 28 1006.5 - -
10/12:24am 28.6 - - - - SE 44 - 24 - - 1006.4 -
10/12:00am 29.0 - - - - SSE 44 52 24 28 1006.7 - -
 
Date/Time
EST
Temp
°C
App
Temp
°C
Dew
Point
Rel
Hum
%
Delta-T
°C
Wind Press
QNH
hPa
Press
MSL
hPa
Rain
since 9 am
mm
Dir
 
Spd
km/h
Gust
km/h
Spd
kts
Gust
kts
09/11:30pm 28.9 - - - - SE 43 50 23 27 1007.2 - -
09/11:24pm 28.9 - - - - SE 43 - 23 - - 1007.2 -
09/11:00pm 28.9 - - - - SE 44 50 24 27 1007.6 - -
09/10:30pm 28.9 - - - - SE 44 52 24 28 1008.1 - -
09/10:24pm 28.8 - - - - SE 46 - 25 - - 1007.9 -
09/10:00pm 29.0 - - - - SE 44 52 24 28 1008.2 - -
09/09:30pm 29.1 - - - - SE 44 52 24 28 1008.1 - -
09/09:24pm 29.0 - - - - SE 46 - 25 - - 1007.8 -
09/09:00pm 29.0 - - - - SE 46 56 25 30 1007.9 - -
09/08:30pm 29.0 - - - - SE 50 59 27 32 1007.8 - -
09/08:24pm 29.0 - - - - SE 50 - 27 - - 1007.5 -
09/08:00pm 29.0 - - - - SE 48 57 26 31 1007.6 - -
09/07:30pm 28.7 - - - - SSE 48 59 26 32 1007.0 - -
09/07:24pm 28.8 - - - - SE 46 - 25 - - 1006.9 -
09/07:00pm 28.7 - - - - SSE 52 57 28 31 1006.9 - -
09/06:30pm 28.6 - - - - SE 50 57 27 31 1006.7 - -
09/06:24pm 28.4 - - - - SE 50 - 27 - - 1006.6 -
09/06:00pm 28.8 - - - - SSE 48 59 26 32 1006.7 - -
09/05:30pm 28.8 - - - - SSE 48 54 26 29 1006.4 - -
09/05:24pm 28.8 - - - - SSE 48 - 26 - - 1006.2 -
09/05:00pm 28.8 - - - - SSE 48 56 26 30 1006.0 - -
09/04:30pm 28.7 - - - - SSE 48 56 26 30 1005.9 - -
09/04:24pm 28.9 - - - - SSE 46 - 25 - - 1005.7 -
09/04:00pm 28.8 - - - - SSE 48 57 26 31 1005.7 - -
09/03:30pm 28.8 - - - - SSE 48 54 26 29 1005.5 - -
09/03:24pm 28.8 - - - - SSE 48 - 26 - - 1005.4 -
09/03:00pm 29.0 - - - - SSE 46 54 25 29 1005.9 - -
09/02:30pm 29.0 - - - - SSE 43 50 23 27 1006.0 - -
09/02:24pm 28.9 - - - - SSE 44 - 24 - - 1005.9 -
09/02:00pm 28.8 - - - - SSE 44 54 24 29 1006.1 - -
09/01:30pm 28.9 - - - - SSE 44 52 24 28 1006.3 - -
09/01:24pm 28.8 - - - - SSE 44 - 24 - - 1006.2 -
09/01:00pm 28.8 - - - - SSE 43 50 23 27 1006.7 - -
09/12:30pm 28.1 - - - - SSE 43 52 23 28 1007.1 - -
09/12:24pm 27.9 - - - - SSE 46 - 25 - - 1007.0 -
09/12:00pm 28.7 - - - - SE 43 50 23 27 1007.5 - -
09/11:30am 28.5 - - - - SSE 43 50 23 27 1007.9 - -
09/11:24am 28.8 - - - - SSE 44 - 24 - - 1007.7 -
09/11:00am 28.5 - - - - SE 43 50 23 27 1007.7 - -
09/10:30am 28.5 - - - - SSE 41 48 22 26 1007.6 - -
09/10:24am 28.5 - - - - SSE 41 - 22 - - 1007.6 -
09/10:00am 28.0 - - - - SE 44 50 24 27 1007.7 - -
09/09:30am 28.7 - - - - SE 41 46 22 25 1007.8 - -
09/09:24am 28.5 - - - - SE 41 - 22 - - 1007.7 -
09/09:00am 28.0 - - - - SE 37 46 20 25 1007.9 - -
09/08:30am 27.6 - - - - SE 32 35 17 19 1008.2 - -
09/08:24am 27.0 - - - - SE 32 - 17 - - 1008.1 -
09/08:00am 26.8 - - - - SE 33 39 18 21 1008.0 - -
09/07:30am 26.5 - - - - SE 39 44 21 24 1007.5 - -
09/07:24am 26.6 - - - - SE 37 - 20 - - 1007.5 -
09/07:00am 26.4 - - - - SE 52 61 28 33 1007.4 - -
09/06:30am 26.9 - - - - SSE 43 50 23 27 1006.9 - -
09/06:24am 27.2 - - - - SSE 44 - 24 - - 1006.7 -
09/06:12am 27.4 - - - - SSE 46 57 25 31 1006.8 - -
09/06:03am 27.8 - - - - SE 39 57 21 31 1006.7 - -
09/06:00am 27.7 - - - - SE 39 50 21 27 1006.8 - -
09/05:30am 27.6 - - - - ESE 39 44 21 24 1006.4 - -
09/05:24am 27.7 - - - - ESE 43 - 23 - - 1006.2 -
09/05:00am 28.0 - - - - ESE 44 52 24 28 1006.1 - -
09/04:30am 27.8 - - - - SE 48 56 26 30 1005.9 - -
09/04:24am 27.7 - - - - SE 48 - 26 - - 1005.7 -
09/04:00am 27.7 - - - - SE 44 52 24 28 1005.6 - -
09/03:30am 28.1 - - - - SE 48 56 26 30 1005.5 - -
09/03:24am 28.0 - - - - SE 50 - 27 - - 1005.2 -
09/03:00am 28.3 - - - - SE 46 54 25 29 1005.4 - -
09/02:30am 28.7 - - - - SE 39 44 21 24 1005.5 - -
09/02:24am 28.5 - - - - SE 39 - 21 - - 1005.4 -
09/02:00am 28.6 - - - - SE 44 50 24 27 1005.8 - -
09/01:30am 28.7 - - - - SE 46 54 25 29 1006.0 - -
09/01:24am 28.9 - - - - SE 48 - 26 - - 1006.0 -
09/01:00am 28.8 - - - - SE 44 52 24 28 1006.4 - -
09/12:30am 28.9 - - - - SE 44 54 24 29 1006.9 - -
09/12:24am 29.0 - - - - SE 44 - 24 - - 1006.9 -
09/12:00am 28.9 - - - - SE 44 54 24 29 1007.5 - -
 
Date/Time
EST
Temp
°C
App
Temp
°C
Dew
Point
Rel
Hum
%
Delta-T
°C
Wind Press
QNH
hPa
Press
MSL
hPa
Rain
since 9 am
mm
Dir
 
Spd
km/h
Gust
km/h
Spd
kts
Gust
kts
08/11:30pm 28.4 - - - - SSE 46 59 25 32 1007.5 - -
08/11:24pm 28.8 - - - - SSE 43 - 23 - - 1007.4 -
08/11:00pm 28.8 - - - - SSE 44 52 24 28 1007.8 - -
08/10:30pm 28.8 - - - - SE 46 56 25 30 1008.1 - -
08/10:24pm 28.6 - - - - SE 44 - 24 - - 1008.0 -
08/10:00pm 29.2 - - - - SE 43 50 23 27 1008.1 - -
08/09:30pm 29.1 - - - - SSE 43 50 23 27 1007.8 - -
08/09:24pm 29.2 - - - - SSE 44 - 24 - - 1007.5 -
08/09:00pm 29.1 - - - - SE 43 52 23 28 1007.2 - -
08/08:30pm 29.2 - - - - SE 41 48 22 26 1007.1 - -
08/08:24pm 29.2 - - - - SE 43 - 23 - - 1007.0 -
08/08:00pm 29.1 - - - - SE 41 48 22 26 1006.9 - -
08/07:30pm 29.1 - - - - SSE 39 46 21 25 1007.0 - -
08/07:24pm 29.1 - - - - SE 37 - 20 - - 1006.9 -
08/07:00pm 28.7 - - - - SSE 37 46 20 25 1006.8 - -
08/06:30pm 28.9 - - - - SSE 37 46 20 25 1006.9 - -
08/06:24pm 28.8 - - - - S 39 - 21 - - 1006.8 -
08/06:00pm 29.0 - - - - S 41 46 22 25 1006.8 - -
08/05:30pm 29.2 - - - - S 44 52 24 28 1006.4 - -
08/05:24pm 29.1 - - - - S 44 - 24 - - 1006.3 -
08/05:00pm 28.9 - - - - S 46 52 25 28 1006.3 - -
08/04:30pm 28.9 - - - - S 41 48 22 26 1005.9 - -
08/04:24pm 28.9 - - - - S 41 - 22 - - 1005.8 -
08/04:00pm 28.9 - - - - S 44 50 24 27 1005.7 - -
08/03:30pm 29.2 - - - - S 44 50 24 27 1005.6 - -
08/03:24pm 29.3 - - - - S 43 - 23 - - 1005.5 -
08/03:00pm 29.4 - - - - S 39 46 21 25 1005.9 - -
08/02:30pm 29.6 - - - - S 39 46 21 25 1005.9 - -
08/02:24pm 29.6 - - - - S 39 - 21 - - 1005.7 -
08/02:00pm 29.5 - - - - S 41 46 22 25 1006.1 - -
08/01:30pm 29.5 - - - - SSW 37 41 20 22 1006.6 - -
08/01:24pm 29.3 - - - - SSW 35 - 19 - - 1006.6 -
08/01:00pm 29.3 - - - - SSW 28 32 15 17 1007.2 - -
08/12:30pm 29.4 - - - - SSW 26 28 14 15 1007.5 - -
08/12:24pm 29.4 - - - - SSW 26 - 14 - - 1007.5 -
08/12:00pm 29.5 - - - - SSW 28 32 15 17 1008.0 - -
08/11:30am 29.5 - - - - SSW 26 30 14 16 1008.7 - -
08/11:24am 29.4 - - - - SSW 24 - 13 - - 1008.7 -
08/11:00am 29.5 - - - - SSW 26 30 14 16 1009.0 - -
08/10:30am 29.5 - - - - S 24 30 13 16 1009.0 - -
08/10:24am 29.6 - - - - S 22 - 12 - - 1009.0 -
08/10:00am 29.6 - - - - S 20 26 11 14 1009.3 - -
08/09:30am 29.7 - - - - SSE 20 22 11 12 1009.2 - -
08/09:24am 29.7 - - - - S 19 - 10 - - 1009.0 -
08/09:00am 29.2 - - - - SW 6 13 3 7 1009.1 - -
08/08:30am 28.9 - - - - S 15 19 8 10 1009.1 - -
08/08:24am 29.0 - - - - S 17 - 9 - - 1009.0 -
08/08:00am 28.8 - - - - S 15 17 8 9 1009.4 - -
08/07:30am 28.5 - - - - S 19 20 10 11 1008.8 - -
08/07:24am 28.8 - - - - S 19 - 10 - - 1008.8 -
08/07:00am 29.0 - - - - SE 4 7 2 4 1008.7 - -
08/06:30am 28.8 - - - - SW 7 13 4 7 1008.5 - -
08/06:24am 28.9 - - - - WSW 11 - 6 - - 1008.1 -
08/06:00am 28.4 - - - - W 9 15 5 8 1008.0 - -
08/05:30am 28.8 - - - - S 15 19 8 10 1007.5 - -
08/05:24am 29.0 - - - - S 17 - 9 - - 1007.5 -
08/05:00am 28.7 - - - - S 19 20 10 11 1007.3 - -
08/04:30am 29.3 - - - - NNW 6 13 3 7 1006.9 - -
08/04:24am 29.3 - - - - NNW 6 - 3 - - 1006.9 -
08/04:00am 29.5 - - - - N 2 7 1 4 1007.1 - -
08/03:30am 29.2 - - - - N 2 9 1 5 1007.0 - -
08/03:24am 29.4 - - - - CALM 0 - 0 - - 1007.0 -
08/03:00am 29.5 - - - - CALM 0 0 0 0 1007.1 - -
08/02:30am 29.5 - - - - CALM 0 0 0 0 1006.9 - -
08/02:24am 29.5 - - - - CALM 0 - 0 - - 1006.9 -
08/02:00am 29.5 - - - - CALM 0 0 0 0 1006.9 - -
08/01:30am 29.6 - - - - CALM 0 0 0 0 1007.2 - -
08/01:24am 29.6 - - - - CALM 0 - 0 - - 1007.1 -
08/01:00am 29.6 - - - - CALM 0 0 0 0 1007.5 - -
08/12:30am 29.6 - - - - CALM 0 0 0 0 1008.1 - -
08/12:24am 29.6 - - - - N 2 - 1 - - 1008.0 -
08/12:00am 29.5 - - - - N 7 9 4 5 1008.2 - -
 
Date/Time
EST
Temp
°C
App
Temp
°C
Dew
Point
Rel
Hum
%
Delta-T
°C
Wind Press
QNH
hPa
Press
MSL
hPa
Rain
since 9 am
mm
Dir
 
Spd
km/h
Gust
km/h
Spd
kts
Gust
kts
07/11:30pm 29.7 - - - - N 6 7 3 4 1008.4 - -
07/11:24pm 29.7 - - - - N 6 - 3 - - 1008.4 -
07/11:00pm 29.8 - - - - N 6 9 3 5 1008.7 - -
07/10:30pm 29.8 - - - - CALM 0 4 0 2 1008.8 - -
07/10:24pm 29.8 - - - - N 4 - 2 - - 1008.7 -
07/10:00pm 29.8 - - - - N 7 9 4 5 1008.7 - -
07/09:30pm 29.9 - - - - CALM 0 4 0 2 1008.4 - -
07/09:24pm 29.9 - - - - CALM 0 - 0 - - 1008.3 -
07/09:00pm 30.0 - - - - CALM 0 6 0 3 1008.2 - -
07/08:30pm 30.2 - - - - CALM 0 6 0 3 1008.0 - -
07/08:24pm 30.3 - - - - CALM 0 - 0 - - 1007.8 -
07/08:00pm 30.1 - - - - CALM 0 6 0 3 1007.7 - -
07/07:30pm 30.2 - - - - CALM 0 4 0 2 1007.5 - -
07/07:24pm 30.3 - - - - N 4 - 2 - - 1007.3 -
07/07:00pm 30.5 - - - - CALM 0 6 0 3 1006.8 - -
07/06:30pm 30.5 - - - - CALM 0 6 0 3 1006.5 - -
07/06:24pm 30.5 - - - - CALM 0 - 0 - - 1006.4 -
07/06:00pm 31.2 - - - - CALM 0 4 0 2 1006.2 - -
07/05:30pm 32.5 - - - - CALM 0 6 0 3 1006.0 - -
07/05:24pm 33.3 - - - - CALM 0 - 0 - - 1005.8 -
07/05:00pm 33.0 - - - - CALM 0 2 0 1 1005.8 - -
07/04:30pm 34.2 - - - - NNW 6 7 3 4 1005.7 - -
07/04:24pm 33.5 - - - - NNW 2 - 1 - - 1005.7 -
07/04:00pm 34.2 - - - - NNW 4 7 2 4 1005.7 - -
07/03:30pm 32.7 - - - - NNW 7 9 4 5 1005.6 - -
07/03:24pm 32.7 - - - - NNW 7 - 4 - - 1005.4 -
07/03:00pm 31.9 - - - - NNW 9 11 5 6 1005.8 - -
07/02:30pm 31.8 - - - - NNW 11 15 6 8 1005.7 - -
07/02:24pm 31.6 - - - - NNW 13 - 7 - - 1005.6 -
07/02:00pm 31.5 - - - - NNW 15 17 8 9 1005.8 - -
07/01:30pm 31.2 - - - - NNW 17 19 9 10 1005.9 - -
07/01:24pm 31.1 - - - - NNW 17 - 9 - - 1005.8 -
07/01:00pm 30.9 - - - - NW 15 17 8 9 1006.2 - -
07/12:30pm 30.6 - - - - NW 15 17 8 9 1006.5 - -
07/12:24pm 30.5 - - - - NW 15 - 8 - - 1006.4 -
07/12:00pm 30.4 - - - - NW 20 20 11 11 1007.0 - -
07/11:30am 30.4 - - - - NW 19 20 10 11 1007.2 - -
07/11:24am 30.4 - - - - NW 19 - 10 - - 1007.1 -
07/11:00am 30.4 - - - - NW 20 24 11 13 1007.6 - -
07/10:30am 30.3 - - - - NW 22 24 12 13 1007.7 - -
07/10:24am 30.3 - - - - NW 20 - 11 - - 1007.6 -
07/10:00am 30.2 - - - - NW 20 22 11 12 1007.7 - -
07/09:30am 30.3 - - - - NW 22 24 12 13 1007.7 - -
07/09:24am 30.3 - - - - NW 22 - 12 - - 1007.5 -
07/09:00am 30.1 - - - - NW 22 24 12 13 1007.5 - -
07/08:30am 30.1 - - - - WNW 20 24 11 13 1007.3 - -
07/08:24am 30.1 - - - - WNW 20 - 11 - - 1007.1 -
07/08:00am 29.8 - - - - WNW 20 26 11 14 1007.0 - -
07/07:30am 29.9 - - - - WNW 22 24 12 13 1006.6 - -
07/07:24am 29.9 - - - - WNW 22 - 12 - - 1006.4 -

Other Formats:

Comma delimited format used in spreadsheet applications
http://www.bom.gov.au/fwo/IDQ60801/IDQ60801.94290.axf

JavaScript Object Notation format (JSON) in row-major order
http://www.bom.gov.au/fwo/IDQ60801/IDQ60801.94290.json